Virac, Philippines
Current Conditions -  °F | °C
As of 8:00 AM on Wednesday 26 Nov 2014 (Local Time) from RPLL Reporting Station
Scattered Clouds Scattered Clouds  
Wind Chill: 82°   Ceiling: Unl
Heat Index: 91°   Visibility: 6mi
Dew Point: 77°   Wind: 5mph
Humidity: 84%   Direction: 100°E
Pressure: 29.85"   Gusts: NA
Location:  13.58°N, 124.23°E
Report Text: RPLL 260000Z 10004KT 060V180 9999 FEW025 SCT300 28/25 Q1011 NOSIG RMK A2986
Loading
Personal Weather Stations






























Interactive Weather Map New forecast layout! Learn more

10-Day Weather Forecast

Advertisements
Track Severe Weather on mobile